sensor_id;sensor_type;location;lat;lon;timestamp;temperature;humidity
22633;DHT22;11483;55.828;37.488;2022-07-06T00:00:33;20.60;99.90
22633;DHT22;11483;55.828;37.488;2022-07-06T00:02:58;20.70;99.90
22633;DHT22;11483;55.828;37.488;2022-07-06T00:05:24;20.60;99.90
22633;DHT22;11483;55.828;37.488;2022-07-06T00:07:50;20.70;99.90
22633;DHT22;11483;55.828;37.488;2022-07-06T00:10:16;20.70;99.90
22633;DHT22;11483;55.828;37.488;2022-07-06T00:12:41;20.60;99.90
22633;DHT22;11483;55.828;37.488;2022-07-06T00:15:07;20.70;99.90
22633;DHT22;11483;55.828;37.488;2022-07-06T00:17:33;20.70;99.90
22633;DHT22;11483;55.828;37.488;2022-07-06T00:19:58;20.80;99.90
22633;DHT22;11483;55.828;37.488;2022-07-06T00:22:24;20.80;99.90
22633;DHT22;11483;55.828;37.488;2022-07-06T00:24:50;20.80;99.90
22633;DHT22;11483;55.828;37.488;2022-07-06T00:27:15;20.80;99.90
22633;DHT22;11483;55.828;37.488;2022-07-06T00:29:41;20.90;99.90
22633;DHT22;11483;55.828;37.488;2022-07-06T00:32:12;21.00;99.90
22633;DHT22;11483;55.828;37.488;2022-07-06T00:34:38;21.00;99.90
22633;DHT22;11483;55.828;37.488;2022-07-06T00:37:06;21.10;99.90
22633;DHT22;11483;55.828;37.488;2022-07-06T00:39:32;21.10;99.90
22633;DHT22;11483;55.828;37.488;2022-07-06T00:41:58;21.00;99.90
22633;DHT22;11483;55.828;37.488;2022-07-06T00:44:24;21.00;99.90
22633;DHT22;11483;55.828;37.488;2022-07-06T00:46:49;20.90;99.90
22633;DHT22;11483;55.828;37.488;2022-07-06T00:49:15;20.80;99.90
22633;DHT22;11483;55.828;37.488;2022-07-06T00:51:59;20.70;99.90
22633;DHT22;11483;55.828;37.488;2022-07-06T00:54:26;20.60;99.90
22633;DHT22;11483;55.828;37.488;2022-07-06T00:56:52;20.60;99.90
22633;DHT22;11483;55.828;37.488;2022-07-06T00:59:18;20.60;99.90
22633;DHT22;11483;55.828;37.488;2022-07-06T01:01:43;20.60;99.90
22633;DHT22;11483;55.828;37.488;2022-07-06T01:04:09;20.70;99.90
22633;DHT22;11483;55.828;37.488;2022-07-06T01:06:35;20.70;99.90
22633;DHT22;11483;55.828;37.488;2022-07-06T01:09:01;20.70;99.90
22633;DHT22;11483;55.828;37.488;2022-07-06T01:11:27;20.70;99.90
22633;DHT22;11483;55.828;37.488;2022-07-06T01:13:53;20.70;99.90
22633;DHT22;11483;55.828;37.488;2022-07-06T01:16:20;20.50;99.90
22633;DHT22;11483;55.828;37.488;2022-07-06T01:18:45;20.40;99.90
22633;DHT22;11483;55.828;37.488;2022-07-06T01:21:12;20.30;99.90
22633;DHT22;11483;55.828;37.488;2022-07-06T01:23:38;20.30;99.90
22633;DHT22;11483;55.828;37.488;2022-07-06T01:26:04;20.40;99.90
22633;DHT22;11483;55.828;37.488;2022-07-06T01:28:30;20.30;99.90
22633;DHT22;11483;55.828;37.488;2022-07-06T01:30:58;20.40;99.90
22633;DHT22;11483;55.828;37.488;2022-07-06T01:33:23;20.40;99.90
22633;DHT22;11483;55.828;37.488;2022-07-06T01:35:49;20.40;99.90
22633;DHT22;11483;55.828;37.488;2022-07-06T01:38:15;20.40;99.90
22633;DHT22;11483;55.828;37.488;2022-07-06T01:40:40;20.40;99.90
22633;DHT22;11483;55.828;37.488;2022-07-06T01:43:06;20.50;99.90
22633;DHT22;11483;55.828;37.488;2022-07-06T01:45:32;20.40;99.90
22633;DHT22;11483;55.828;37.488;2022-07-06T01:47:58;20.60;99.90
22633;DHT22;11483;55.828;37.488;2022-07-06T01:50:24;20.70;99.90
22633;DHT22;11483;55.828;37.488;2022-07-06T01:52:50;20.80;99.90
22633;DHT22;11483;55.828;37.488;2022-07-06T01:55:15;20.80;99.90
22633;DHT22;11483;55.828;37.488;2022-07-06T01:57:41;20.90;99.90
22633;DHT22;11483;55.828;37.488;2022-07-06T02:00:07;21.00;99.90
22633;DHT22;11483;55.828;37.488;2022-07-06T02:02:33;21.00;99.90
22633;DHT22;11483;55.828;37.488;2022-07-06T02:04:59;21.00;99.90
22633;DHT22;11483;55.828;37.488;2022-07-06T02:07:24;21.00;99.90
22633;DHT22;11483;55.828;37.488;2022-07-06T02:09:50;21.00;99.90
22633;DHT22;11483;55.828;37.488;2022-07-06T02:12:16;21.10;99.90
22633;DHT22;11483;55.828;37.488;2022-07-06T02:14:41;21.10;99.90
22633;DHT22;11483;55.828;37.488;2022-07-06T02:17:07;21.10;99.90
22633;DHT22;11483;55.828;37.488;2022-07-06T02:19:32;21.10;99.90
22633;DHT22;11483;55.828;37.488;2022-07-06T02:21:58;21.10;99.90
22633;DHT22;11483;55.828;37.488;2022-07-06T02:24:24;21.10;99.90
22633;DHT22;11483;55.828;37.488;2022-07-06T02:26:49;21.10;99.90
22633;DHT22;11483;55.828;37.488;2022-07-06T02:29:15;21.10;99.90
22633;DHT22;11483;55.828;37.488;2022-07-06T02:31:41;21.10;99.90
22633;DHT22;11483;55.828;37.488;2022-07-06T02:34:06;21.10;99.90
22633;DHT22;11483;55.828;37.488;2022-07-06T02:36:32;21.20;99.90
22633;DHT22;11483;55.828;37.488;2022-07-06T02:38:58;21.20;99.90
22633;DHT22;11483;55.828;37.488;2022-07-06T02:41:23;21.30;99.90
22633;DHT22;11483;55.828;37.488;2022-07-06T02:43:49;21.30;99.90
22633;DHT22;11483;55.828;37.488;2022-07-06T02:46:15;21.40;99.90
22633;DHT22;11483;55.828;37.488;2022-07-06T02:48:40;21.40;99.90
22633;DHT22;11483;55.828;37.488;2022-07-06T02:51:06;21.50;99.90
22633;DHT22;11483;55.828;37.488;2022-07-06T02:53:32;21.40;99.90
22633;DHT22;11483;55.828;37.488;2022-07-06T02:55:57;21.50;99.90
22633;DHT22;11483;55.828;37.488;2022-07-06T02:58:23;21.60;99.90
22633;DHT22;11483;55.828;37.488;2022-07-06T03:00:48;21.70;99.90
22633;DHT22;11483;55.828;37.488;2022-07-06T03:03:14;21.70;99.90
22633;DHT22;11483;55.828;37.488;2022-07-06T03:05:40;21.80;99.90
22633;DHT22;11483;55.828;37.488;2022-07-06T03:08:05;21.80;99.90
22633;DHT22;11483;55.828;37.488;2022-07-06T03:10:31;21.80;99.90
22633;DHT22;11483;55.828;37.488;2022-07-06T03:12:57;21.70;99.90
22633;DHT22;11483;55.828;37.488;2022-07-06T03:15:22;21.70;99.90
22633;DHT22;11483;55.828;37.488;2022-07-06T03:17:48;21.80;99.90
22633;DHT22;11483;55.828;37.488;2022-07-06T03:20:14;21.80;99.90
22633;DHT22;11483;55.828;37.488;2022-07-06T03:22:39;21.80;99.90
22633;DHT22;11483;55.828;37.488;2022-07-06T03:25:05;21.80;99.90
22633;DHT22;11483;55.828;37.488;2022-07-06T03:27:31;21.80;99.90
22633;DHT22;11483;55.828;37.488;2022-07-06T03:29:57;21.90;99.90
22633;DHT22;11483;55.828;37.488;2022-07-06T03:32:23;21.90;99.90
22633;DHT22;11483;55.828;37.488;2022-07-06T03:34:48;22.00;99.90
22633;DHT22;11483;55.828;37.488;2022-07-06T03:37:14;22.00;99.90
22633;DHT22;11483;55.828;37.488;2022-07-06T03:39:40;22.10;99.90
22633;DHT22;11483;55.828;37.488;2022-07-06T03:42:05;22.10;99.90
22633;DHT22;11483;55.828;37.488;2022-07-06T03:44:31;22.10;99.90
22633;DHT22;11483;55.828;37.488;2022-07-06T03:46:57;22.10;99.90
22633;DHT22;11483;55.828;37.488;2022-07-06T03:49:22;22.10;99.90
22633;DHT22;11483;55.828;37.488;2022-07-06T03:51:52;22.10;99.90
22633;DHT22;11483;55.828;37.488;2022-07-06T03:54:19;22.10;99.90
22633;DHT22;11483;55.828;37.488;2022-07-06T03:56:45;22.20;99.90
22633;DHT22;11483;55.828;37.488;2022-07-06T03:59:11;22.20;99.90
22633;DHT22;11483;55.828;37.488;2022-07-06T04:01:36;22.30;99.90
22633;DHT22;11483;55.828;37.488;2022-07-06T04:04:02;22.30;99.90
22633;DHT22;11483;55.828;37.488;2022-07-06T04:06:28;22.30;99.90
22633;DHT22;11483;55.828;37.488;2022-07-06T04:08:53;22.40;99.90
22633;DHT22;11483;55.828;37.488;2022-07-06T04:11:19;22.40;99.90
22633;DHT22;11483;55.828;37.488;2022-07-06T04:13:45;22.40;99.90
22633;DHT22;11483;55.828;37.488;2022-07-06T04:16:10;22.40;99.90
22633;DHT22;11483;55.828;37.488;2022-07-06T04:18:36;22.30;99.90
22633;DHT22;11483;55.828;37.488;2022-07-06T04:21:02;22.30;99.90
22633;DHT22;11483;55.828;37.488;2022-07-06T04:23:28;22.30;99.90
22633;DHT22;11483;55.828;37.488;2022-07-06T04:25:53;22.30;99.90
22633;DHT22;11483;55.828;37.488;2022-07-06T04:28:19;22.40;99.90
22633;DHT22;11483;55.828;37.488;2022-07-06T04:30:45;22.50;99.90
22633;DHT22;11483;55.828;37.488;2022-07-06T04:33:10;22.60;99.90
22633;DHT22;11483;55.828;37.488;2022-07-06T04:35:36;22.80;99.90
22633;DHT22;11483;55.828;37.488;2022-07-06T04:38:02;23.00;99.90
22633;DHT22;11483;55.828;37.488;2022-07-06T04:40:27;23.10;99.90
22633;DHT22;11483;55.828;37.488;2022-07-06T04:42:53;23.30;99.90
22633;DHT22;11483;55.828;37.488;2022-07-06T04:45:19;23.40;99.90
22633;DHT22;11483;55.828;37.488;2022-07-06T04:47:44;23.50;99.90
22633;DHT22;11483;55.828;37.488;2022-07-06T04:50:10;23.60;99.90
22633;DHT22;11483;55.828;37.488;2022-07-06T04:52:37;23.70;99.90
22633;DHT22;11483;55.828;37.488;2022-07-06T04:55:03;23.90;99.90
22633;DHT22;11483;55.828;37.488;2022-07-06T04:57:31;24.00;99.90
22633;DHT22;11483;55.828;37.488;2022-07-06T04:59:57;24.00;99.90
22633;DHT22;11483;55.828;37.488;2022-07-06T05:02:22;24.10;99.90
22633;DHT22;11483;55.828;37.488;2022-07-06T05:04:48;24.20;99.90
22633;DHT22;11483;55.828;37.488;2022-07-06T05:07:14;24.20;99.90
22633;DHT22;11483;55.828;37.488;2022-07-06T05:09:40;24.30;99.90
22633;DHT22;11483;55.828;37.488;2022-07-06T05:12:06;24.40;99.90
22633;DHT22;11483;55.828;37.488;2022-07-06T05:14:32;24.40;99.90
22633;DHT22;11483;55.828;37.488;2022-07-06T05:16:57;24.30;99.90
22633;DHT22;11483;55.828;37.488;2022-07-06T05:19:23;24.40;99.90
22633;DHT22;11483;55.828;37.488;2022-07-06T05:21:49;24.50;99.90
22633;DHT22;11483;55.828;37.488;2022-07-06T05:24:14;24.50;99.90
22633;DHT22;11483;55.828;37.488;2022-07-06T05:26:41;24.60;99.90
22633;DHT22;11483;55.828;37.488;2022-07-06T05:29:07;24.70;99.90
22633;DHT22;11483;55.828;37.488;2022-07-06T05:31:32;24.90;99.90
22633;DHT22;11483;55.828;37.488;2022-07-06T05:33:58;25.00;99.90
22633;DHT22;11483;55.828;37.488;2022-07-06T05:36:24;25.20;99.90
22633;DHT22;11483;55.828;37.488;2022-07-06T05:38:49;25.40;99.90
22633;DHT22;11483;55.828;37.488;2022-07-06T05:41:15;25.60;99.90
22633;DHT22;11483;55.828;37.488;2022-07-06T05:43:40;25.70;99.90
22633;DHT22;11483;55.828;37.488;2022-07-06T05:46:06;25.80;99.90
22633;DHT22;11483;55.828;37.488;2022-07-06T05:48:32;25.90;99.90
22633;DHT22;11483;55.828;37.488;2022-07-06T05:51:16;25.90;99.90
22633;DHT22;11483;55.828;37.488;2022-07-06T05:53:42;25.90;99.90
22633;DHT22;11483;55.828;37.488;2022-07-06T05:56:10;25.80;99.90
22633;DHT22;11483;55.828;37.488;2022-07-06T05:58:36;25.90;99.90
22633;DHT22;11483;55.828;37.488;2022-07-06T06:01:02;26.10;99.90
22633;DHT22;11483;55.828;37.488;2022-07-06T06:03:28;26.50;99.90
22633;DHT22;11483;55.828;37.488;2022-07-06T06:05:54;26.60;99.90
22633;DHT22;11483;55.828;37.488;2022-07-06T06:08:20;26.80;99.90
22633;DHT22;11483;55.828;37.488;2022-07-06T06:10:46;26.90;99.90
22633;DHT22;11483;55.828;37.488;2022-07-06T06:13:12;27.00;99.90
22633;DHT22;11483;55.828;37.488;2022-07-06T06:15:37;27.00;99.90
22633;DHT22;11483;55.828;37.488;2022-07-06T06:18:03;27.10;99.90
22633;DHT22;11483;55.828;37.488;2022-07-06T06:20:29;27.10;99.90
22633;DHT22;11483;55.828;37.488;2022-07-06T06:22:57;27.30;99.90
22633;DHT22;11483;55.828;37.488;2022-07-06T06:25:34;27.30;99.90
22633;DHT22;11483;55.828;37.488;2022-07-06T06:28:01;27.40;99.90
22633;DHT22;11483;55.828;37.488;2022-07-06T06:30:35;27.50;99.90
22633;DHT22;11483;55.828;37.488;2022-07-06T06:33:09;27.70;99.90
22633;DHT22;11483;55.828;37.488;2022-07-06T06:35:43;27.70;99.90
22633;DHT22;11483;55.828;37.488;2022-07-06T06:38:10;27.70;99.90
22633;DHT22;11483;55.828;37.488;2022-07-06T06:40:36;27.60;99.90
22633;DHT22;11483;55.828;37.488;2022-07-06T06:43:02;27.50;99.90
22633;DHT22;11483;55.828;37.488;2022-07-06T06:45:28;27.50;99.90
22633;DHT22;11483;55.828;37.488;2022-07-06T06:47:56;27.50;99.90
22633;DHT22;11483;55.828;37.488;2022-07-06T06:50:22;27.40;99.90
22633;DHT22;11483;55.828;37.488;2022-07-06T06:52:51;27.60;99.90
22633;DHT22;11483;55.828;37.488;2022-07-06T06:55:17;27.70;99.90
22633;DHT22;11483;55.828;37.488;2022-07-06T06:57:44;27.70;99.90
22633;DHT22;11483;55.828;37.488;2022-07-06T07:00:11;27.80;99.90
22633;DHT22;11483;55.828;37.488;2022-07-06T07:02:40;27.90;99.90
22633;DHT22;11483;55.828;37.488;2022-07-06T07:05:06;28.10;99.90
22633;DHT22;11483;55.828;37.488;2022-07-06T07:07:32;28.10;99.90
22633;DHT22;11483;55.828;37.488;2022-07-06T07:09:59;28.40;99.90
22633;DHT22;11483;55.828;37.488;2022-07-06T07:12:25;28.60;99.90
22633;DHT22;11483;55.828;37.488;2022-07-06T07:14:51;28.70;99.90
22633;DHT22;11483;55.828;37.488;2022-07-06T07:17:17;28.90;99.90
22633;DHT22;11483;55.828;37.488;2022-07-06T07:19:43;29.00;99.90
22633;DHT22;11483;55.828;37.488;2022-07-06T07:22:08;29.00;99.90
22633;DHT22;11483;55.828;37.488;2022-07-06T07:24:35;28.80;99.90
22633;DHT22;11483;55.828;37.488;2022-07-06T07:27:00;28.70;99.90
22633;DHT22;11483;55.828;37.488;2022-07-06T07:29:27;28.80;99.90
22633;DHT22;11483;55.828;37.488;2022-07-06T07:31:53;28.90;99.90
22633;DHT22;11483;55.828;37.488;2022-07-06T07:34:18;28.90;99.90
22633;DHT22;11483;55.828;37.488;2022-07-06T07:36:44;29.00;99.90
22633;DHT22;11483;55.828;37.488;2022-07-06T07:39:10;28.80;99.90
22633;DHT22;11483;55.828;37.488;2022-07-06T07:41:36;28.90;99.90
22633;DHT22;11483;55.828;37.488;2022-07-06T07:44:02;28.90;99.90
22633;DHT22;11483;55.828;37.488;2022-07-06T07:46:28;28.80;99.90
22633;DHT22;11483;55.828;37.488;2022-07-06T07:48:54;28.80;99.90
22633;DHT22;11483;55.828;37.488;2022-07-06T07:51:19;28.90;99.90
22633;DHT22;11483;55.828;37.488;2022-07-06T07:53:46;29.00;99.90
22633;DHT22;11483;55.828;37.488;2022-07-06T07:56:12;29.00;99.90
22633;DHT22;11483;55.828;37.488;2022-07-06T07:58:38;28.90;99.90
22633;DHT22;11483;55.828;37.488;2022-07-06T08:01:03;28.90;99.90
22633;DHT22;11483;55.828;37.488;2022-07-06T08:03:30;29.10;99.90
22633;DHT22;11483;55.828;37.488;2022-07-06T08:05:57;29.30;99.90
22633;DHT22;11483;55.828;37.488;2022-07-06T08:08:24;29.50;99.90
22633;DHT22;11483;55.828;37.488;2022-07-06T08:10:50;29.50;99.90
22633;DHT22;11483;55.828;37.488;2022-07-06T08:13:16;29.70;99.90
22633;DHT22;11483;55.828;37.488;2022-07-06T08:15:42;29.50;99.90
22633;DHT22;11483;55.828;37.488;2022-07-06T08:18:08;29.50;99.90
22633;DHT22;11483;55.828;37.488;2022-07-06T08:20:36;29.40;99.90
22633;DHT22;11483;55.828;37.488;2022-07-06T08:23:01;29.60;99.90
22633;DHT22;11483;55.828;37.488;2022-07-06T08:25:28;29.90;99.90
22633;DHT22;11483;55.828;37.488;2022-07-06T08:27:53;30.20;99.90
22633;DHT22;11483;55.828;37.488;2022-07-06T08:30:19;30.40;99.90
22633;DHT22;11483;55.828;37.488;2022-07-06T08:32:46;30.70;99.90
22633;DHT22;11483;55.828;37.488;2022-07-06T08:35:11;30.90;99.90
22633;DHT22;11483;55.828;37.488;2022-07-06T08:37:37;31.00;99.90
22633;DHT22;11483;55.828;37.488;2022-07-06T08:40:04;31.00;99.90
22633;DHT22;11483;55.828;37.488;2022-07-06T08:42:34;31.20;99.90
22633;DHT22;11483;55.828;37.488;2022-07-06T08:45:05;31.30;99.90
22633;DHT22;11483;55.828;37.488;2022-07-06T08:47:31;31.50;99.90
22633;DHT22;11483;55.828;37.488;2022-07-06T08:49:57;31.50;99.90
22633;DHT22;11483;55.828;37.488;2022-07-06T08:52:24;31.20;99.90
22633;DHT22;11483;55.828;37.488;2022-07-06T08:54:50;31.00;99.90
22633;DHT22;11483;55.828;37.488;2022-07-06T08:57:17;30.60;99.90
22633;DHT22;11483;55.828;37.488;2022-07-06T08:59:43;30.90;99.90
22633;DHT22;11483;55.828;37.488;2022-07-06T09:02:10;31.40;99.90
22633;DHT22;11483;55.828;37.488;2022-07-06T09:04:37;32.00;99.90
22633;DHT22;11483;55.828;37.488;2022-07-06T09:07:03;33.50;99.90
22633;DHT22;11483;55.828;37.488;2022-07-06T09:09:30;34.80;99.90
22633;DHT22;11483;55.828;37.488;2022-07-06T09:11:56;36.60;99.90
22633;DHT22;11483;55.828;37.488;2022-07-06T09:14:29;38.60;99.70
22633;DHT22;11483;55.828;37.488;2022-07-06T09:17:03;40.00;93.60
22633;DHT22;11483;55.828;37.488;2022-07-06T09:19:34;39.80;90.20
22633;DHT22;11483;55.828;37.488;2022-07-06T09:22:01;39.00;89.40
22633;DHT22;11483;55.828;37.488;2022-07-06T09:24:27;38.50;88.90
22633;DHT22;11483;55.828;37.488;2022-07-06T09:26:57;37.00;90.50
22633;DHT22;11483;55.828;37.488;2022-07-06T09:29:30;35.80;91.90
22633;DHT22;11483;55.828;37.488;2022-07-06T09:32:01;35.20;93.00
22633;DHT22;11483;55.828;37.488;2022-07-06T09:34:46;34.60;93.90
22633;DHT22;11483;55.828;37.488;2022-07-06T09:37:13;34.10;94.40
22633;DHT22;11483;55.828;37.488;2022-07-06T09:39:40;34.60;95.90
22633;DHT22;11483;55.828;37.488;2022-07-06T09:42:07;36.30;94.20
22633;DHT22;11483;55.828;37.488;2022-07-06T09:44:39;37.20;91.10
22633;DHT22;11483;55.828;37.488;2022-07-06T09:47:07;37.70;91.50
22633;DHT22;11483;55.828;37.488;2022-07-06T09:49:34;38.70;90.30
22633;DHT22;11483;55.828;37.488;2022-07-06T09:52:05;39.80;88.10
22633;DHT22;11483;55.828;37.488;2022-07-06T09:54:33;40.40;84.20
22633;DHT22;11483;55.828;37.488;2022-07-06T09:57:01;39.10;83.40
22633;DHT22;11483;55.828;37.488;2022-07-06T09:59:29;38.30;83.30
22633;DHT22;11483;55.828;37.488;2022-07-06T10:01:57;38.00;84.80
22633;DHT22;11483;55.828;37.488;2022-07-06T10:04:25;38.80;83.70
22633;DHT22;11483;55.828;37.488;2022-07-06T10:06:52;39.50;82.70
22633;DHT22;11483;55.828;37.488;2022-07-06T10:09:19;39.30;81.20
22633;DHT22;11483;55.828;37.488;2022-07-06T10:11:51;38.10;82.50
22633;DHT22;11483;55.828;37.488;2022-07-06T10:14:22;37.90;83.60
22633;DHT22;11483;55.828;37.488;2022-07-06T10:16:48;37.60;84.50
22633;DHT22;11483;55.828;37.488;2022-07-06T10:19:16;37.30;84.90
22633;DHT22;11483;55.828;37.488;2022-07-06T10:21:43;37.80;84.60
22633;DHT22;11483;55.828;37.488;2022-07-06T10:24:09;38.10;83.00
22633;DHT22;11483;55.828;37.488;2022-07-06T10:26:36;38.10;82.90
22633;DHT22;11483;55.828;37.488;2022-07-06T10:29:04;37.60;82.30
22633;DHT22;11483;55.828;37.488;2022-07-06T10:31:31;37.70;81.00
22633;DHT22;11483;55.828;37.488;2022-07-06T10:33:59;38.00;81.70
22633;DHT22;11483;55.828;37.488;2022-07-06T10:36:26;38.40;81.20
22633;DHT22;11483;55.828;37.488;2022-07-06T10:38:53;39.10;79.10
22633;DHT22;11483;55.828;37.488;2022-07-06T10:41:31;40.00;77.00
22633;DHT22;11483;55.828;37.488;2022-07-06T10:43:57;41.10;74.80
22633;DHT22;11483;55.828;37.488;2022-07-06T10:46:28;41.30;71.80
22633;DHT22;11483;55.828;37.488;2022-07-06T10:48:54;40.90;72.70
22633;DHT22;11483;55.828;37.488;2022-07-06T10:51:25;39.10;73.30
22633;DHT22;11483;55.828;37.488;2022-07-06T10:53:59;38.00;75.10
22633;DHT22;11483;55.828;37.488;2022-07-06T10:56:39;36.80;77.20
22633;DHT22;11483;55.828;37.488;2022-07-06T10:59:10;36.60;78.80
22633;DHT22;11483;55.828;37.488;2022-07-06T11:01:37;37.00;78.50
22633;DHT22;11483;55.828;37.488;2022-07-06T11:06:32;38.40;76.80
22633;DHT22;11483;55.828;37.488;2022-07-06T11:09:16;37.60;77.70
22633;DHT22;11483;55.828;37.488;2022-07-06T11:11:43;37.60;76.30
22633;DHT22;11483;55.828;37.488;2022-07-06T11:14:16;37.40;76.30
22633;DHT22;11483;55.828;37.488;2022-07-06T11:19:22;37.30;76.40
22633;DHT22;11483;55.828;37.488;2022-07-06T11:21:54;37.60;76.90
22633;DHT22;11483;55.828;37.488;2022-07-06T11:24:25;39.00;75.40
22633;DHT22;11483;55.828;37.488;2022-07-06T11:26:52;40.70;73.70
22633;DHT22;11483;55.828;37.488;2022-07-06T11:29:20;41.10;70.30
22633;DHT22;11483;55.828;37.488;2022-07-06T11:31:48;42.50;69.70
22633;DHT22;11483;55.828;37.488;2022-07-06T11:34:21;43.30;66.20
22633;DHT22;11483;55.828;37.488;2022-07-06T11:36:47;43.10;65.30
22633;DHT22;11483;55.828;37.488;2022-07-06T11:39:14;43.00;66.20
22633;DHT22;11483;55.828;37.488;2022-07-06T11:41:43;42.90;64.90
22633;DHT22;11483;55.828;37.488;2022-07-06T11:44:09;42.40;64.10
22633;DHT22;11483;55.828;37.488;2022-07-06T11:46:35;41.70;64.60
22633;DHT22;11483;55.828;37.488;2022-07-06T11:49:09;41.10;64.50
22633;DHT22;11483;55.828;37.488;2022-07-06T11:51:36;40.30;66.70
22633;DHT22;11483;55.828;37.488;2022-07-06T11:54:14;40.00;67.50
22633;DHT22;11483;55.828;37.488;2022-07-06T11:56:51;40.00;66.90
22633;DHT22;11483;55.828;37.488;2022-07-06T11:59:24;39.50;68.10
22633;DHT22;11483;55.828;37.488;2022-07-06T12:02:02;38.90;69.00
22633;DHT22;11483;55.828;37.488;2022-07-06T12:04:29;37.80;70.70
22633;DHT22;11483;55.828;37.488;2022-07-06T12:06:55;37.60;70.90
22633;DHT22;11483;55.828;37.488;2022-07-06T12:09:24;38.00;71.40
22633;DHT22;11483;55.828;37.488;2022-07-06T12:11:51;38.40;71.00
22633;DHT22;11483;55.828;37.488;2022-07-06T12:14:19;39.00;70.50
22633;DHT22;11483;55.828;37.488;2022-07-06T12:16:47;39.70;69.20
22633;DHT22;11483;55.828;37.488;2022-07-06T12:19:14;39.40;69.80
22633;DHT22;11483;55.828;37.488;2022-07-06T12:21:51;39.10;66.70
22633;DHT22;11483;55.828;37.488;2022-07-06T12:24:27;38.00;67.40
22633;DHT22;11483;55.828;37.488;2022-07-06T12:26:54;37.80;68.50
22633;DHT22;11483;55.828;37.488;2022-07-06T12:29:21;37.10;68.70
22633;DHT22;11483;55.828;37.488;2022-07-06T12:31:51;36.70;70.00
22633;DHT22;11483;55.828;37.488;2022-07-06T12:34:23;37.10;69.80
22633;DHT22;11483;55.828;37.488;2022-07-06T12:36:51;37.40;69.50
22633;DHT22;11483;55.828;37.488;2022-07-06T12:39:19;37.50;69.30
22633;DHT22;11483;55.828;37.488;2022-07-06T12:41:51;38.80;68.70
22633;DHT22;11483;55.828;37.488;2022-07-06T12:44:19;40.40;66.50
22633;DHT22;11483;55.828;37.488;2022-07-06T12:46:46;41.30;62.90
22633;DHT22;11483;55.828;37.488;2022-07-06T12:49:20;42.80;62.20
22633;DHT22;11483;55.828;37.488;2022-07-06T12:54:22;43.20;58.80
22633;DHT22;11483;55.828;37.488;2022-07-06T12:57:18;42.30;59.00
22633;DHT22;11483;55.828;37.488;2022-07-06T12:59:57;42.00;59.50
22633;DHT22;11483;55.828;37.488;2022-07-06T13:05:06;41.10;59.60
22633;DHT22;11483;55.828;37.488;2022-07-06T13:07:34;40.40;59.60
22633;DHT22;11483;55.828;37.488;2022-07-06T13:10:10;39.80;60.90
22633;DHT22;11483;55.828;37.488;2022-07-06T13:12:37;39.40;61.40
22633;DHT22;11483;55.828;37.488;2022-07-06T13:15:07;39.50;61.30
22633;DHT22;11483;55.828;37.488;2022-07-06T13:17:34;40.20;61.30
22633;DHT22;11483;55.828;37.488;2022-07-06T13:19:59;41.50;61.20
22633;DHT22;11483;55.828;37.488;2022-07-06T13:22:25;42.50;59.90
22633;DHT22;11483;55.828;37.488;2022-07-06T13:24:52;42.70;58.90
22633;DHT22;11483;55.828;37.488;2022-07-06T13:27:18;42.60;56.40
22633;DHT22;11483;55.828;37.488;2022-07-06T13:29:44;42.50;56.40
22633;DHT22;11483;55.828;37.488;2022-07-06T13:32:09;43.00;56.60
22633;DHT22;11483;55.828;37.488;2022-07-06T13:34:35;42.50;57.00
22633;DHT22;11483;55.828;37.488;2022-07-06T13:37:02;41.90;57.90
22633;DHT22;11483;55.828;37.488;2022-07-06T13:39:28;40.50;58.50
22633;DHT22;11483;55.828;37.488;2022-07-06T13:41:54;39.40;59.70
22633;DHT22;11483;55.828;37.488;2022-07-06T13:44:21;39.50;60.60
22633;DHT22;11483;55.828;37.488;2022-07-06T13:46:47;39.40;60.50
22633;DHT22;11483;55.828;37.488;2022-07-06T13:49:13;38.70;62.50
22633;DHT22;11483;55.828;37.488;2022-07-06T13:51:38;38.50;63.90
22633;DHT22;11483;55.828;37.488;2022-07-06T13:54:06;38.80;63.50
22633;DHT22;11483;55.828;37.488;2022-07-06T13:56:32;39.70;63.30
22633;DHT22;11483;55.828;37.488;2022-07-06T13:58:58;40.90;61.60
22633;DHT22;11483;55.828;37.488;2022-07-06T14:01:24;40.90;61.70
22633;DHT22;11483;55.828;37.488;2022-07-06T14:03:50;41.20;60.80
22633;DHT22;11483;55.828;37.488;2022-07-06T14:06:16;41.20;60.20
22633;DHT22;11483;55.828;37.488;2022-07-06T14:08:43;40.90;59.10
22633;DHT22;11483;55.828;37.488;2022-07-06T14:11:09;40.50;59.50
22633;DHT22;11483;55.828;37.488;2022-07-06T14:13:36;39.60;59.40
22633;DHT22;11483;55.828;37.488;2022-07-06T14:16:03;39.00;60.00
22633;DHT22;11483;55.828;37.488;2022-07-06T14:18:32;38.50;61.50
22633;DHT22;11483;55.828;37.488;2022-07-06T14:20:58;37.60;62.80
22633;DHT22;11483;55.828;37.488;2022-07-06T14:23:26;36.80;63.30
22633;DHT22;11483;55.828;37.488;2022-07-06T14:25:53;36.20;64.40
22633;DHT22;11483;55.828;37.488;2022-07-06T14:28:20;35.40;65.00
22633;DHT22;11483;55.828;37.488;2022-07-06T14:30:46;34.90;68.80
22633;DHT22;11483;55.828;37.488;2022-07-06T14:33:13;34.30;73.70
22633;DHT22;11483;55.828;37.488;2022-07-06T14:35:44;33.70;76.50
22633;DHT22;11483;55.828;37.488;2022-07-06T14:38:12;33.50;77.90
22633;DHT22;11483;55.828;37.488;2022-07-06T14:40:38;33.10;79.40
22633;DHT22;11483;55.828;37.488;2022-07-06T14:43:04;32.90;80.60
22633;DHT22;11483;55.828;37.488;2022-07-06T14:45:30;32.60;81.60
22633;DHT22;11483;55.828;37.488;2022-07-06T14:47:56;32.60;82.00
22633;DHT22;11483;55.828;37.488;2022-07-06T14:50:22;32.50;82.40
22633;DHT22;11483;55.828;37.488;2022-07-06T14:52:51;32.50;82.40
22633;DHT22;11483;55.828;37.488;2022-07-06T14:55:18;32.60;84.00
22633;DHT22;11483;55.828;37.488;2022-07-06T14:57:44;33.20;83.30
22633;DHT22;11483;55.828;37.488;2022-07-06T15:00:10;33.90;82.80
22633;DHT22;11483;55.828;37.488;2022-07-06T15:02:36;34.80;81.60
22633;DHT22;11483;55.828;37.488;2022-07-06T15:05:03;35.80;78.60
22633;DHT22;11483;55.828;37.488;2022-07-06T15:07:29;36.40;77.40
22633;DHT22;11483;55.828;37.488;2022-07-06T15:09:55;36.90;76.60
22633;DHT22;11483;55.828;37.488;2022-07-06T15:12:21;37.20;74.50
22633;DHT22;11483;55.828;37.488;2022-07-06T15:14:47;37.20;72.70
22633;DHT22;11483;55.828;37.488;2022-07-06T15:17:13;37.10;73.60
22633;DHT22;11483;55.828;37.488;2022-07-06T15:19:39;36.90;73.70
22633;DHT22;11483;55.828;37.488;2022-07-06T15:22:06;36.80;74.20
22633;DHT22;11483;55.828;37.488;2022-07-06T15:24:32;36.70;74.60